sensor_id;sensor_type;location;lat;lon;timestamp;pressure;altitude;pressure_sealevel;temperature;humidity
14885;BME280;7534;50.762;7.000;2023-04-29T00:02:18;87716.94;;;-143.16;68.72
14885;BME280;7534;50.762;7.000;2023-04-29T00:04:44;87670.53;;;-143.16;68.78
14885;BME280;7534;50.762;7.000;2023-04-29T00:07:10;87825.94;;;-143.16;68.52
14885;BME280;7534;50.762;7.000;2023-04-29T00:09:40;87733.09;;;-143.16;68.00
14885;BME280;7534;50.762;7.000;2023-04-29T00:12:05;87727.03;;;-143.16;67.67
14885;BME280;7534;50.762;7.000;2023-04-29T00:14:31;87817.88;;;-143.16;67.22
14885;BME280;7534;50.762;7.000;2023-04-29T00:16:57;87753.28;;;-143.16;66.79
14885;BME280;7534;50.762;7.000;2023-04-29T00:19:23;87773.47;;;-143.16;66.73
14885;BME280;7534;50.762;7.000;2023-04-29T00:21:48;87761.34;;;-143.16;66.76
14885;BME280;7534;50.762;7.000;2023-04-29T00:24:14;87765.38;;;-143.16;67.04
14885;BME280;7534;50.762;7.000;2023-04-29T00:26:40;87825.94;;;-143.16;67.07
14885;BME280;7534;50.762;7.000;2023-04-29T00:29:05;87751.25;;;-143.16;66.72
14885;BME280;7534;50.762;7.000;2023-04-29T00:31:31;87737.13;;;-143.16;66.68
14885;BME280;7534;50.762;7.000;2023-04-29T00:33:57;87735.13;;;-143.16;66.19
14885;BME280;7534;50.762;7.000;2023-04-29T00:36:23;87749.25;;;-143.16;66.22
14885;BME280;7534;50.762;7.000;2023-04-29T00:38:49;87793.66;;;-143.16;66.19
14885;BME280;7534;50.762;7.000;2023-04-29T00:41:14;87755.31;;;-143.16;65.76
14885;BME280;7534;50.762;7.000;2023-04-29T00:43:41;87775.47;;;-143.16;65.74
14885;BME280;7534;50.762;7.000;2023-04-29T00:46:06;87771.44;;;-143.16;65.47
14885;BME280;7534;50.762;7.000;2023-04-29T00:48:32;87874.38;;;-143.16;65.35
14885;BME280;7534;50.762;7.000;2023-04-29T00:50:59;87842.09;;;-143.16;65.23
14885;BME280;7534;50.762;7.000;2023-04-29T00:53:24;87769.44;;;-143.16;65.08
14885;BME280;7534;50.762;7.000;2023-04-29T00:55:51;87771.44;;;-143.16;64.95
14885;BME280;7534;50.762;7.000;2023-04-29T00:58:17;87807.78;;;-143.16;65.21
14885;BME280;7534;50.762;7.000;2023-04-29T01:00:44;87763.38;;;-143.16;65.12
14885;BME280;7534;50.762;7.000;2023-04-29T01:03:12;87791.63;;;-143.16;65.15
14885;BME280;7534;50.762;7.000;2023-04-29T01:05:38;87797.69;;;-143.16;64.80
14885;BME280;7534;50.762;7.000;2023-04-29T01:08:19;87809.78;;;-143.16;64.99
14885;BME280;7534;50.762;7.000;2023-04-29T01:10:55;87825.94;;;-143.16;64.55
14885;BME280;7534;50.762;7.000;2023-04-29T01:13:35;87725.03;;;-143.16;64.30
14885;BME280;7534;50.762;7.000;2023-04-29T01:16:11;87753.28;;;-143.16;64.03
14885;BME280;7534;50.762;7.000;2023-04-29T01:18:49;87825.94;;;-143.16;63.55
14885;BME280;7534;50.762;7.000;2023-04-29T01:21:19;87781.53;;;-143.16;62.74
14885;BME280;7534;50.762;7.000;2023-04-29T01:23:45;87836.03;;;-143.16;63.03
14885;BME280;7534;50.762;7.000;2023-04-29T01:26:11;87809.78;;;-143.16;62.84
14885;BME280;7534;50.762;7.000;2023-04-29T01:31:48;87852.19;;;-143.16;62.74
14885;BME280;7534;50.762;7.000;2023-04-29T01:34:22;87850.16;;;-143.16;62.72
14885;BME280;7534;50.762;7.000;2023-04-29T01:37:34;87888.50;;;-143.16;62.41
14885;BME280;7534;50.762;7.000;2023-04-29T01:43:00;87842.09;;;-143.16;61.91
14885;BME280;7534;50.762;7.000;2023-04-29T01:45:26;87848.16;;;-143.16;61.83
14885;BME280;7534;50.762;7.000;2023-04-29T01:47:54;87856.22;;;-143.16;61.73
14885;BME280;7534;50.762;7.000;2023-04-29T01:50:23;87854.19;;;-143.16;61.68
14885;BME280;7534;50.762;7.000;2023-04-29T01:52:49;87829.97;;;-143.16;61.10
14885;BME280;7534;50.762;7.000;2023-04-29T01:55:15;87838.06;;;-143.16;60.52
14885;BME280;7534;50.762;7.000;2023-04-29T01:57:41;87850.16;;;-143.16;60.27
14885;BME280;7534;50.762;7.000;2023-04-29T02:00:07;87866.31;;;-143.16;60.28
14885;BME280;7534;50.762;7.000;2023-04-29T02:02:33;87852.19;;;-143.16;60.32
14885;BME280;7534;50.762;7.000;2023-04-29T02:04:59;87846.13;;;-143.16;60.47
14885;BME280;7534;50.762;7.000;2023-04-29T02:07:25;87755.31;;;-143.16;60.11
14885;BME280;7534;50.762;7.000;2023-04-29T02:09:51;87789.63;;;-143.16;60.31
14885;BME280;7534;50.762;7.000;2023-04-29T02:12:17;87834.03;;;-143.16;60.39
14885;BME280;7534;50.762;7.000;2023-04-29T02:14:43;87793.66;;;-143.16;60.27
14885;BME280;7534;50.762;7.000;2023-04-29T02:17:18;87892.56;;;-143.16;60.74
14885;BME280;7534;50.762;7.000;2023-04-29T02:19:43;87805.75;;;-143.16;61.36
14885;BME280;7534;50.762;7.000;2023-04-29T02:22:09;87789.63;;;-143.16;61.93
14885;BME280;7534;50.762;7.000;2023-04-29T02:24:37;87801.72;;;-143.16;62.73
14885;BME280;7534;50.762;7.000;2023-04-29T02:27:03;87793.66;;;-143.16;63.85
14885;BME280;7534;50.762;7.000;2023-04-29T02:29:31;87894.56;;;-143.16;64.42
14885;BME280;7534;50.762;7.000;2023-04-29T02:31:57;87872.38;;;-143.16;64.87
14885;BME280;7534;50.762;7.000;2023-04-29T02:34:23;87858.25;;;-143.16;65.55
14885;BME280;7534;50.762;7.000;2023-04-29T02:36:49;87892.56;;;-143.16;65.78
14885;BME280;7534;50.762;7.000;2023-04-29T02:39:15;87961.19;;;-143.16;66.01
14885;BME280;7534;50.762;7.000;2023-04-29T02:41:41;87805.75;;;-143.16;66.01
14885;BME280;7534;50.762;7.000;2023-04-29T02:44:07;87884.47;;;-143.16;66.43
14885;BME280;7534;50.762;7.000;2023-04-29T02:46:33;87840.06;;;-143.16;66.46
14885;BME280;7534;50.762;7.000;2023-04-29T02:49:00;87882.47;;;-143.16;66.59
14885;BME280;7534;50.762;7.000;2023-04-29T02:51:27;87890.53;;;-143.16;66.67
14885;BME280;7534;50.762;7.000;2023-04-29T02:53:52;87876.41;;;-143.16;66.66
14885;BME280;7534;50.762;7.000;2023-04-29T02:56:18;87900.63;;;-143.16;66.94
14885;BME280;7534;50.762;7.000;2023-04-29T02:58:44;87886.50;;;-143.16;66.96
14885;BME280;7534;50.762;7.000;2023-04-29T03:01:10;87848.16;;;-143.16;66.90
14885;BME280;7534;50.762;7.000;2023-04-29T03:03:36;87862.28;;;-143.16;66.99
14885;BME280;7534;50.762;7.000;2023-04-29T03:06:02;87874.38;;;-143.16;67.19
14885;BME280;7534;50.762;7.000;2023-04-29T03:08:28;87866.31;;;-143.16;67.36
14885;BME280;7534;50.762;7.000;2023-04-29T03:10:53;87886.50;;;-143.16;67.67
14885;BME280;7534;50.762;7.000;2023-04-29T03:13:19;87868.34;;;-143.16;67.10
14885;BME280;7534;50.762;7.000;2023-04-29T03:15:45;87932.91;;;-143.16;67.31
14885;BME280;7534;50.762;7.000;2023-04-29T03:18:11;87882.47;;;-143.16;67.38
14885;BME280;7534;50.762;7.000;2023-04-29T03:20:37;87898.59;;;-143.16;67.21
14885;BME280;7534;50.762;7.000;2023-04-29T03:23:02;87910.72;;;-143.16;67.38
14885;BME280;7534;50.762;7.000;2023-04-29T03:25:28;87920.81;;;-143.16;67.56
14885;BME280;7534;50.762;7.000;2023-04-29T03:27:54;88005.59;;;-143.16;67.42
14885;BME280;7534;50.762;7.000;2023-04-29T03:30:20;87914.75;;;-143.16;67.36
14885;BME280;7534;50.762;7.000;2023-04-29T03:32:46;87898.59;;;-143.16;67.11
14885;BME280;7534;50.762;7.000;2023-04-29T03:35:11;87858.25;;;-143.16;67.55
14885;BME280;7534;50.762;7.000;2023-04-29T03:37:37;87967.25;;;-143.16;67.21
14885;BME280;7534;50.762;7.000;2023-04-29T03:40:05;87912.75;;;-143.16;67.66
14885;BME280;7534;50.762;7.000;2023-04-29T03:42:31;87914.75;;;-143.16;67.81
14885;BME280;7534;50.762;7.000;2023-04-29T03:44:56;87926.88;;;-143.16;67.90
14885;BME280;7534;50.762;7.000;2023-04-29T03:47:22;87920.81;;;-143.16;68.13
14885;BME280;7534;50.762;7.000;2023-04-29T03:49:48;87941.00;;;-143.16;68.53
14885;BME280;7534;50.762;7.000;2023-04-29T03:52:14;87900.63;;;-143.16;69.09
14885;BME280;7534;50.762;7.000;2023-04-29T03:54:40;87930.91;;;-143.16;69.50
14885;BME280;7534;50.762;7.000;2023-04-29T03:57:06;87975.31;;;-143.16;69.85
14885;BME280;7534;50.762;7.000;2023-04-29T03:59:32;87985.41;;;-143.16;70.29
14885;BME280;7534;50.762;7.000;2023-04-29T04:01:57;87959.16;;;-143.16;70.44
14885;BME280;7534;50.762;7.000;2023-04-29T04:04:23;87938.97;;;-143.16;71.22
14885;BME280;7534;50.762;7.000;2023-04-29T04:06:49;87967.25;;;-143.16;72.02
14885;BME280;7534;50.762;7.000;2023-04-29T04:09:18;88009.63;;;-143.16;72.60
14885;BME280;7534;50.762;7.000;2023-04-29T04:11:44;88090.38;;;-143.16;73.45
14885;BME280;7534;50.762;7.000;2023-04-29T04:14:10;88027.78;;;-143.16;74.40
14885;BME280;7534;50.762;7.000;2023-04-29T04:16:36;88013.66;;;-143.16;74.90
14885;BME280;7534;50.762;7.000;2023-04-29T04:19:02;88027.78;;;-143.16;75.84
14885;BME280;7534;50.762;7.000;2023-04-29T04:21:28;88011.66;;;-143.16;76.69
14885;BME280;7534;50.762;7.000;2023-04-29T04:23:54;88106.53;;;-143.16;77.92
14885;BME280;7534;50.762;7.000;2023-04-29T04:26:20;88056.06;;;-143.16;78.27
14885;BME280;7534;50.762;7.000;2023-04-29T04:28:47;88108.53;;;-143.16;79.02
14885;BME280;7534;50.762;7.000;2023-04-29T04:31:13;88072.19;;;-143.16;79.90
14885;BME280;7534;50.762;7.000;2023-04-29T04:33:40;88050.00;;;-143.16;80.57
14885;BME280;7534;50.762;7.000;2023-04-29T04:36:06;88064.13;;;-143.16;81.09
14885;BME280;7534;50.762;7.000;2023-04-29T04:38:32;88078.25;;;-143.16;81.32
14885;BME280;7534;50.762;7.000;2023-04-29T04:40:58;88060.09;;;-143.16;81.55
14885;BME280;7534;50.762;7.000;2023-04-29T04:43:24;88100.47;;;-143.16;81.96
14885;BME280;7534;50.762;7.000;2023-04-29T04:45:50;88035.88;;;-143.16;81.99
14885;BME280;7534;50.762;7.000;2023-04-29T04:48:16;88132.75;;;-143.16;82.43
14885;BME280;7534;50.762;7.000;2023-04-29T04:50:42;88112.56;;;-143.16;82.88
14885;BME280;7534;50.762;7.000;2023-04-29T04:53:07;88120.66;;;-143.16;83.20
14885;BME280;7534;50.762;7.000;2023-04-29T04:55:33;88126.72;;;-143.16;83.43
14885;BME280;7534;50.762;7.000;2023-04-29T04:57:59;88108.53;;;-143.16;83.93
14885;BME280;7534;50.762;7.000;2023-04-29T05:00:25;88132.75;;;-143.16;84.03
14885;BME280;7534;50.762;7.000;2023-04-29T05:02:50;88114.59;;;-143.16;84.37
14885;BME280;7534;50.762;7.000;2023-04-29T05:05:16;88100.47;;;-143.16;84.28
14885;BME280;7534;50.762;7.000;2023-04-29T05:07:43;88126.72;;;-143.16;84.22
14885;BME280;7534;50.762;7.000;2023-04-29T05:10:09;88132.75;;;-143.16;84.60
14885;BME280;7534;50.762;7.000;2023-04-29T05:12:35;88100.47;;;-143.16;85.51
14885;BME280;7534;50.762;7.000;2023-04-29T05:15:02;88078.25;;;-143.16;85.41
14885;BME280;7534;50.762;7.000;2023-04-29T05:17:29;88128.72;;;-143.16;85.68
14885;BME280;7534;50.762;7.000;2023-04-29T05:19:55;88136.78;;;-143.16;85.73
14885;BME280;7534;50.762;7.000;2023-04-29T05:22:20;88096.44;;;-143.16;86.13
14885;BME280;7534;50.762;7.000;2023-04-29T05:24:46;88134.78;;;-143.16;86.14
14885;BME280;7534;50.762;7.000;2023-04-29T05:27:16;88163.03;;;-143.16;86.33
14885;BME280;7534;50.762;7.000;2023-04-29T05:29:41;88126.72;;;-143.16;86.37
14885;BME280;7534;50.762;7.000;2023-04-29T05:32:08;88138.81;;;-143.16;86.09
14885;BME280;7534;50.762;7.000;2023-04-29T05:34:33;88144.88;;;-143.16;86.42
14885;BME280;7534;50.762;7.000;2023-04-29T05:36:59;88138.81;;;-143.16;86.65
14885;BME280;7534;50.762;7.000;2023-04-29T05:39:25;88249.84;;;-143.16;86.98
14885;BME280;7534;50.762;7.000;2023-04-29T05:41:51;88138.81;;;-143.16;86.97
14885;BME280;7534;50.762;7.000;2023-04-29T05:44:17;88144.88;;;-143.16;87.08
14885;BME280;7534;50.762;7.000;2023-04-29T05:46:43;88126.72;;;-143.16;86.79
14885;BME280;7534;50.762;7.000;2023-04-29T05:49:08;88116.63;;;-143.16;86.89
14885;BME280;7534;50.762;7.000;2023-04-29T05:51:34;88144.88;;;-143.16;86.73
14885;BME280;7534;50.762;7.000;2023-04-29T05:54:00;88167.06;;;-143.16;86.44
14885;BME280;7534;50.762;7.000;2023-04-29T05:56:32;88136.78;;;-143.16;87.05
14885;BME280;7534;50.762;7.000;2023-04-29T05:59:02;88233.69;;;-143.16;87.30
14885;BME280;7534;50.762;7.000;2023-04-29T06:01:28;88128.72;;;-143.16;87.30
14885;BME280;7534;50.762;7.000;2023-04-29T06:03:54;88157.00;;;-143.16;87.88
14885;BME280;7534;50.762;7.000;2023-04-29T06:06:19;88207.44;;;-143.16;87.43
14885;BME280;7534;50.762;7.000;2023-04-29T06:08:45;88140.84;;;-143.16;86.99
14885;BME280;7534;50.762;7.000;2023-04-29T06:11:11;88124.69;;;-143.16;86.63
14885;BME280;7534;50.762;7.000;2023-04-29T06:13:37;88146.88;;;-143.16;86.40
14885;BME280;7534;50.762;7.000;2023-04-29T06:16:03;88173.13;;;-143.16;85.93
14885;BME280;7534;50.762;7.000;2023-04-29T06:18:29;88175.16;;;-143.16;86.08
14885;BME280;7534;50.762;7.000;2023-04-29T06:20:55;88177.16;;;-143.16;86.38
14885;BME280;7534;50.762;7.000;2023-04-29T06:23:20;88096.44;;;-143.16;86.55
14885;BME280;7534;50.762;7.000;2023-04-29T06:25:47;88146.88;;;-143.16;85.78
14885;BME280;7534;50.762;7.000;2023-04-29T06:28:13;88116.63;;;-143.16;85.57
14885;BME280;7534;50.762;7.000;2023-04-29T06:30:38;88183.22;;;-143.16;85.44
14885;BME280;7534;50.762;7.000;2023-04-29T06:33:04;88144.88;;;-143.16;85.04
14885;BME280;7534;50.762;7.000;2023-04-29T06:35:30;88120.66;;;-143.16;84.68
14885;BME280;7534;50.762;7.000;2023-04-29T06:37:55;88102.47;;;-143.16;84.26
14885;BME280;7534;50.762;7.000;2023-04-29T06:40:21;88086.34;;;-143.16;83.53
14885;BME280;7534;50.762;7.000;2023-04-29T06:42:47;88080.28;;;-143.16;83.12
14885;BME280;7534;50.762;7.000;2023-04-29T06:45:13;88112.56;;;-143.16;83.15
14885;BME280;7534;50.762;7.000;2023-04-29T06:47:38;88104.50;;;-143.16;83.00
14885;BME280;7534;50.762;7.000;2023-04-29T06:50:05;88112.56;;;-143.16;83.33
14885;BME280;7534;50.762;7.000;2023-04-29T06:52:31;88092.38;;;-143.16;82.48
14885;BME280;7534;50.762;7.000;2023-04-29T06:54:57;88124.69;;;-143.16;82.16
14885;BME280;7534;50.762;7.000;2023-04-29T06:57:23;88070.19;;;-143.16;82.00
14885;BME280;7534;50.762;7.000;2023-04-29T06:59:49;88082.28;;;-143.16;81.76
14885;BME280;7534;50.762;7.000;2023-04-29T07:02:14;88148.91;;;-143.16;81.30
14885;BME280;7534;50.762;7.000;2023-04-29T07:04:40;88080.28;;;-143.16;80.96
14885;BME280;7534;50.762;7.000;2023-04-29T07:07:06;88041.94;;;-143.16;80.61
14885;BME280;7534;50.762;7.000;2023-04-29T07:09:32;87999.53;;;-143.16;80.43
14885;BME280;7534;50.762;7.000;2023-04-29T07:11:57;88080.28;;;-143.16;79.48
14885;BME280;7534;50.762;7.000;2023-04-29T07:14:23;88017.69;;;-143.16;79.30
14885;BME280;7534;50.762;7.000;2023-04-29T07:16:53;88052.00;;;-143.16;78.67
14885;BME280;7534;50.762;7.000;2023-04-29T07:19:20;87967.25;;;-143.16;78.26
14885;BME280;7534;50.762;7.000;2023-04-29T07:21:45;88029.81;;;-143.16;77.63
14885;BME280;7534;50.762;7.000;2023-04-29T07:24:11;87985.41;;;-143.16;77.25
14885;BME280;7534;50.762;7.000;2023-04-29T07:26:37;87993.47;;;-143.16;76.90
14885;BME280;7534;50.762;7.000;2023-04-29T07:29:03;88003.56;;;-143.16;76.29
14885;BME280;7534;50.762;7.000;2023-04-29T07:31:29;87997.50;;;-143.16;76.35
14885;BME280;7534;50.762;7.000;2023-04-29T07:33:54;87973.28;;;-143.16;75.61
14885;BME280;7534;50.762;7.000;2023-04-29T07:36:20;87949.06;;;-143.16;74.80
14885;BME280;7534;50.762;7.000;2023-04-29T07:38:46;87934.94;;;-143.16;74.34
14885;BME280;7534;50.762;7.000;2023-04-29T07:41:11;87943.00;;;-143.16;74.07
14885;BME280;7534;50.762;7.000;2023-04-29T07:43:38;87938.97;;;-143.16;72.87
14885;BME280;7534;50.762;7.000;2023-04-29T07:46:04;87957.16;;;-143.16;72.36
14885;BME280;7534;50.762;7.000;2023-04-29T07:48:30;87971.28;;;-143.16;71.17
14885;BME280;7534;50.762;7.000;2023-04-29T07:50:56;87926.88;;;-143.16;70.70
14885;BME280;7534;50.762;7.000;2023-04-29T07:53:22;87955.13;;;-143.16;70.06
14885;BME280;7534;50.762;7.000;2023-04-29T07:55:47;87961.19;;;-143.16;70.28
14885;BME280;7534;50.762;7.000;2023-04-29T07:58:13;87878.41;;;-143.16;69.94
14885;BME280;7534;50.762;7.000;2023-04-29T08:00:39;87886.50;;;-143.16;69.00
14885;BME280;7534;50.762;7.000;2023-04-29T08:03:05;87894.56;;;-143.16;68.78
14885;BME280;7534;50.762;7.000;2023-04-29T08:05:30;87862.28;;;-143.16;68.78
14885;BME280;7534;50.762;7.000;2023-04-29T08:07:56;87868.34;;;-143.16;67.08
14885;BME280;7534;50.762;7.000;2023-04-29T08:10:22;87866.31;;;-143.16;67.11
14885;BME280;7534;50.762;7.000;2023-04-29T08:12:48;87829.97;;;-143.16;64.33
14885;BME280;7534;50.762;7.000;2023-04-29T08:15:14;87846.13;;;-143.16;64.69
14885;BME280;7534;50.762;7.000;2023-04-29T08:17:40;87813.84;;;-143.16;64.82
14885;BME280;7534;50.762;7.000;2023-04-29T08:20:07;87801.72;;;-143.16;64.56
14885;BME280;7534;50.762;7.000;2023-04-29T08:22:34;87829.97;;;-143.16;64.64
14885;BME280;7534;50.762;7.000;2023-04-29T08:24:59;87876.41;;;-143.16;65.04
14885;BME280;7534;50.762;7.000;2023-04-29T08:27:26;87799.69;;;-143.16;64.16
14885;BME280;7534;50.762;7.000;2023-04-29T08:29:51;87801.72;;;-143.16;63.30
14885;BME280;7534;50.762;7.000;2023-04-29T08:32:17;87795.66;;;-143.16;63.17
14885;BME280;7534;50.762;7.000;2023-04-29T08:34:43;87745.22;;;-143.16;63.45
14885;BME280;7534;50.762;7.000;2023-04-29T08:37:10;87735.13;;;-143.16;61.68
14885;BME280;7534;50.762;7.000;2023-04-29T08:39:36;87781.53;;;-143.16;62.25
14885;BME280;7534;50.762;7.000;2023-04-29T08:42:11;87777.50;;;-143.16;62.41
14885;BME280;7534;50.762;7.000;2023-04-29T08:44:37;87783.56;;;-143.16;61.85
14885;BME280;7534;50.762;7.000;2023-04-29T08:47:05;87817.88;;;-143.16;63.21
14885;BME280;7534;50.762;7.000;2023-04-29T08:49:32;87813.84;;;-143.16;63.60
14885;BME280;7534;50.762;7.000;2023-04-29T08:51:59;87737.13;;;-143.16;63.24
14885;BME280;7534;50.762;7.000;2023-04-29T08:54:25;87787.59;;;-143.16;63.72
14885;BME280;7534;50.762;7.000;2023-04-29T08:56:54;87844.09;;;-143.16;63.27
14885;BME280;7534;50.762;7.000;2023-04-29T08:59:21;87858.25;;;-143.16;64.14
14885;BME280;7534;50.762;7.000;2023-04-29T09:01:50;87910.72;;;-143.16;65.26
14885;BME280;7534;50.762;7.000;2023-04-29T09:07:09;87896.59;;;-143.16;65.49
14885;BME280;7534;50.762;7.000;2023-04-29T09:09:36;87894.56;;;-143.16;65.66
14885;BME280;7534;50.762;7.000;2023-04-29T09:12:03;87890.53;;;-143.16;65.46
14885;BME280;7534;50.762;7.000;2023-04-29T09:14:30;87938.97;;;-143.16;65.14
14885;BME280;7534;50.762;7.000;2023-04-29T09:16:59;87916.78;;;-143.16;65.69
14885;BME280;7534;50.762;7.000;2023-04-29T09:19:35;87908.69;;;-143.16;65.06
14885;BME280;7534;50.762;7.000;2023-04-29T09:22:03;87890.53;;;-143.16;64.73
14885;BME280;7534;50.762;7.000;2023-04-29T09:24:30;87896.59;;;-143.16;65.12
14885;BME280;7534;50.762;7.000;2023-04-29T09:26:58;87904.66;;;-143.16;64.54
14885;BME280;7534;50.762;7.000;2023-04-29T09:29:24;87862.28;;;-143.16;64.03
14885;BME280;7534;50.762;7.000;2023-04-29T09:31:51;87878.41;;;-143.16;64.30
14885;BME280;7534;50.762;7.000;2023-04-29T09:34:33;87842.09;;;-143.16;63.73
14885;BME280;7534;50.762;7.000;2023-04-29T09:37:26;87771.44;;;-143.16;62.78
14885;BME280;7534;50.762;7.000;2023-04-29T09:39:53;87731.06;;;-143.16;60.50
14885;BME280;7534;50.762;7.000;2023-04-29T09:42:19;87704.84;;;-143.16;60.40
14885;BME280;7534;50.762;7.000;2023-04-29T09:44:45;87686.66;;;-143.16;58.89
14885;BME280;7534;50.762;7.000;2023-04-29T09:47:11;87616.03;;;-143.16;58.77
14885;BME280;7534;50.762;7.000;2023-04-29T09:49:40;87666.50;;;-143.16;56.38
14885;BME280;7534;50.762;7.000;2023-04-29T09:52:08;87603.91;;;-143.16;56.00
14885;BME280;7534;50.762;7.000;2023-04-29T09:54:36;87547.41;;;-143.16;54.75
14885;BME280;7534;50.762;7.000;2023-04-29T09:57:08;87446.50;;;-143.16;52.31
14885;BME280;7534;50.762;7.000;2023-04-29T09:59:39;87319.34;;;-143.16;51.54
14885;BME280;7534;50.762;7.000;2023-04-29T10:02:16;87270.91;;;-143.16;50.21
14885;BME280;7534;50.762;7.000;2023-04-29T10:04:53;87222.47;;;-143.16;49.01
14885;BME280;7534;50.762;7.000;2023-04-29T10:07:22;87184.13;;;-143.16;48.30
14885;BME280;7534;50.762;7.000;2023-04-29T10:09:51;87226.50;;;-143.16;45.97
14885;BME280;7534;50.762;7.000;2023-04-29T10:12:19;87272.94;;;-143.16;46.95
14885;BME280;7534;50.762;7.000;2023-04-29T10:15:28;87307.25;;;-143.16;47.01
14885;BME280;7534;50.762;7.000;2023-04-29T10:18:20;87331.47;;;-143.16;47.84
14885;BME280;7534;50.762;7.000;2023-04-29T10:20:47;87343.56;;;-143.16;48.05
14885;BME280;7534;50.762;7.000;2023-04-29T10:23:14;87432.38;;;-143.16;48.45
14885;BME280;7534;50.762;7.000;2023-04-29T10:25:45;87460.63;;;-143.16;48.66
14885;BME280;7534;50.762;7.000;2023-04-29T10:28:14;87454.56;;;-143.16;49.74
14885;BME280;7534;50.762;7.000;2023-04-29T10:30:44;87555.47;;;-143.16;50.33
14885;BME280;7534;50.762;7.000;2023-04-29T10:33:18;87583.75;;;-143.16;50.66
14885;BME280;7534;50.762;7.000;2023-04-29T10:35:49;87607.97;;;-143.16;51.46
14885;BME280;7534;50.762;7.000;2023-04-29T10:38:39;87626.13;;;-143.16;51.86
14885;BME280;7534;50.762;7.000;2023-04-29T10:41:29;87603.91;;;-143.16;52.34
14885;BME280;7534;50.762;7.000;2023-04-29T10:43:58;87622.09;;;-143.16;52.33
14885;BME280;7534;50.762;7.000;2023-04-29T10:46:25;87618.06;;;-143.16;51.75
14885;BME280;7534;50.762;7.000;2023-04-29T10:49:04;87644.28;;;-143.16;52.48
14885;BME280;7534;50.762;7.000;2023-04-29T10:51:45;87644.28;;;-143.16;53.38
14885;BME280;7534;50.762;7.000;2023-04-29T10:54:17;87700.81;;;-143.16;54.10
14885;BME280;7534;50.762;7.000;2023-04-29T10:56:52;87684.66;;;-143.16;54.80
14885;BME280;7534;50.762;7.000;2023-04-29T11:01:53;87723.00;;;-143.16;55.04
14885;BME280;7534;50.762;7.000;2023-04-29T11:04:21;87733.09;;;-143.16;54.93
14885;BME280;7534;50.762;7.000;2023-04-29T11:06:57;87749.25;;;-143.16;54.93
14885;BME280;7534;50.762;7.000;2023-04-29T11:09:29;87670.53;;;-143.16;54.63
14885;BME280;7534;50.762;7.000;2023-04-29T11:12:04;87793.66;;;-143.16;54.37
14885;BME280;7534;50.762;7.000;2023-04-29T11:14:41;87688.69;;;-143.16;55.01
14885;BME280;7534;50.762;7.000;2023-04-29T11:17:14;87733.09;;;-143.16;55.14
14885;BME280;7534;50.762;7.000;2023-04-29T11:19:45;87644.28;;;-143.16;55.49
14885;BME280;7534;50.762;7.000;2023-04-29T11:25:05;87684.66;;;-143.16;54.63
14885;BME280;7534;50.762;7.000;2023-04-29T11:27:36;87618.06;;;-143.16;55.69
14885;BME280;7534;50.762;7.000;2023-04-29T11:30:05;87755.31;;;-143.16;55.49
14885;BME280;7534;50.762;7.000;2023-04-29T11:32:44;87765.38;;;-143.16;56.13
14885;BME280;7534;50.762;7.000;2023-04-29T11:35:18;87755.31;;;-143.16;56.58
14885;BME280;7534;50.762;7.000;2023-04-29T11:37:46;87757.31;;;-143.16;56.45
14885;BME280;7534;50.762;7.000;2023-04-29T11:40:13;87743.19;;;-143.16;56.62
14885;BME280;7534;50.762;7.000;2023-04-29T11:42:49;87698.78;;;-143.16;56.40
14885;BME280;7534;50.762;7.000;2023-04-29T11:45:18;87729.06;;;-143.16;55.67
14885;BME280;7534;50.762;7.000;2023-04-29T11:47:46;87805.75;;;-143.16;56.28
14885;BME280;7534;50.762;7.000;2023-04-29T11:50:14;87777.50;;;-143.16;56.66
14885;BME280;7534;50.762;7.000;2023-04-29T11:52:46;87725.03;;;-143.16;57.20
14885;BME280;7534;50.762;7.000;2023-04-29T11:55:12;87789.63;;;-143.16;57.51
14885;BME280;7534;50.762;7.000;2023-04-29T11:57:39;87745.22;;;-143.16;57.79
14885;BME280;7534;50.762;7.000;2023-04-29T12:00:12;87781.53;;;-143.16;58.09
14885;BME280;7534;50.762;7.000;2023-04-29T12:02:38;87765.38;;;-143.16;58.30
14885;BME280;7534;50.762;7.000;2023-04-29T12:05:08;87737.13;;;-143.16;58.71
14885;BME280;7534;50.762;7.000;2023-04-29T12:07:37;87797.69;;;-143.16;59.30
14885;BME280;7534;50.762;7.000;2023-04-29T12:10:10;87739.16;;;-143.16;59.25
14885;BME280;7534;50.762;7.000;2023-04-29T12:12:38;87714.94;;;-143.16;58.73
14885;BME280;7534;50.762;7.000;2023-04-29T12:15:07;87702.81;;;-143.16;58.67
14885;BME280;7534;50.762;7.000;2023-04-29T12:17:34;87733.09;;;-143.16;57.75
14885;BME280;7534;50.762;7.000;2023-04-29T12:20:01;87745.22;;;-143.16;57.68
14885;BME280;7534;50.762;7.000;2023-04-29T12:22:33;87741.16;;;-143.16;58.04
14885;BME280;7534;50.762;7.000;2023-04-29T12:24:59;87761.34;;;-143.16;58.63
14885;BME280;7534;50.762;7.000;2023-04-29T12:27:25;87745.22;;;-143.16;59.05
14885;BME280;7534;50.762;7.000;2023-04-29T12:29:51;87755.31;;;-143.16;59.44
14885;BME280;7534;50.762;7.000;2023-04-29T12:32:22;87807.78;;;-143.16;59.98
14885;BME280;7534;50.762;7.000;2023-04-29T12:34:50;87749.25;;;-143.16;60.02
14885;BME280;7534;50.762;7.000;2023-04-29T12:37:22;87781.53;;;-143.16;59.36
14885;BME280;7534;50.762;7.000;2023-04-29T12:39:49;87811.81;;;-143.16;59.47
14885;BME280;7534;50.762;7.000;2023-04-29T12:42:16;87793.66;;;-143.16;60.02
14885;BME280;7534;50.762;7.000;2023-04-29T12:44:44;87858.25;;;-143.16;60.35
14885;BME280;7534;50.762;7.000;2023-04-29T12:47:13;87797.69;;;-143.16;60.63
14885;BME280;7534;50.762;7.000;2023-04-29T12:49:46;87791.63;;;-143.16;60.48
14885;BME280;7534;50.762;7.000;2023-04-29T12:52:12;87793.66;;;-143.16;60.50
14885;BME280;7534;50.762;7.000;2023-04-29T12:54:39;87801.72;;;-143.16;60.67
14885;BME280;7534;50.762;7.000;2023-04-29T12:57:11;87850.16;;;-143.16;61.39
14885;BME280;7534;50.762;7.000;2023-04-29T12:59:37;87793.66;;;-143.16;60.84
14885;BME280;7534;50.762;7.000;2023-04-29T13:02:05;87866.31;;;-143.16;61.42
14885;BME280;7534;50.762;7.000;2023-04-29T13:04:30;87834.03;;;-143.16;61.59
14885;BME280;7534;50.762;7.000;2023-04-29T13:06:56;87848.16;;;-143.16;61.29
14885;BME280;7534;50.762;7.000;2023-04-29T13:09:28;87809.78;;;-143.16;61.32